Wright Patterson Air Force Base
KFFO : now visible

Airfield :











YOU CAN JOIN US ON...

 
LOGIN :

Register | Disclaimer

   EN    FR    IT 

 









Legend :    VFR   Marginal VFR   IFR   Intensive IFR   Very Intensive IFR
Visi :
Ceiling :
>= 8 km
>= 3000ft
5 to 8 km
1000 to 3000 ft
1500m to 5 km
500 to 1000 ft
800 to 1500m
200 to 500 ft
< 800m
< 200 ft
Symbols :   Thunderstorms  Fog  Heavy snow  Heavy precipitations  Wind > 20 kt







- Airport Elevation : 823 ft


KFFO - Wright Patterson Air Force Base

CURRENT METAR :
  • 212132Z AUTO 22005KT 10SM SCT060 BKN080 OVC090 30/18 A3015 RMK AO2 DZB23E32 SLP207

EXPIRED METARs :
  • 212123Z AUTO 21006KT 10SM -DZ SCT060 OVC080 30/18 A3015 RMK AO2 DZB23 SLP207
  • 212056Z AUTO 23004KT 10SM BKN075 BKN120 30/18 A3015 RMK AO2 SLP207 T02960184 57017

TAF TAF KFFO
Valid from the 21 at 19:00 until the 23 at 01:00 UTC


211900Z 2119/2301 23012KT 9999 BKN050 QNH3014INS
BECMG 2123/2124 21006KT 9999 SCT100 BKN120 QNH3012INS
BECMG 2214/2215 22015G25KT 9999 SCT120 QNH3006INS
BECMG 2221/2222 22009KT 9999 FEW120 SCT140 QNH2998INS TX33/2120Z TN20/2212Z
No reported NOTAMs for that airfield.



MET'MAP, your aeronautical weather chart ! - Copyright ORBIFLY December 2007 - Disclaimer

ORBIFLY MET'MAP TEAM :

Programming & Development : Alexandra Zaïnal
Concept & Development : Baudouin d'Aumeries
Co-Development & Prog : Marc-Olivier Méhu
Technical & hardware support : Manuel Goepfert

Contact : metmap@orbifly.com




SOURCES & CREDITS :

   NOAA       Earth
Advisory